Mountainair, New Mexico
Current Conditions -  °F | °C
As of 10:35 PM on Wednesday 22 Oct 2014 (Local Time) from K0E0 Reporting Station
Clear Clear  
Wind Chill: 42°   Ceiling: Unl
Heat Index: 44°   Visibility: 10mi
Dew Point: 38°   Wind: 5mph
Humidity: 81%   Direction: 80°E
Pressure: 30.24"   Gusts: NA
Location:  34.52°N, 106.24°W
Report Text: K0E0 230435Z AUTO 08004KT 10SM CLR 07/04 A3024 RMK AO2 T00670036
Loading
Personal Weather Stations






























Interactive Weather Map
Tropical Storm Tracking
New forecast layout! Learn more

10-Day Weather Forecast

Advertisements
Track Severe Weather on mobile